Time;durP1;ratioP1;P1;durP2;ratioP2;P2;SDS_P1;SDS_P2;PMS_P1;PMS_P2;Temp;Humidity;BMP_temperature;BMP_pressure;BME280_temperature;BME280_humidity;BME280_pressure;Samples;Min_cycle;Max_cycle;Signal;HPM_P1;HPM_P2
2022/08/17 00:01:54;;;;;;;10.77;9.75;;;;;;;;;;5038711;28;20243;-56
2022/08/17 00:04:21;;;;;;;10.60;9.43;;;;;;;;;;5039252;28;20240;-56
2022/08/17 00:06:48;;;;;;;10.77;9.68;;;;;;;;;;5040307;28;20909;-56
2022/08/17 00:09:14;;;;;;;9.88;8.85;;;;;;;;;;5043118;28;20235;-56
2022/08/17 00:11:43;;;;;;;10.82;9.85;;;;;;;;;;5041130;28;20235;-56
2022/08/17 00:14:13;;;;;;;10.05;9.05;;;;;;;;;;5035149;28;20232;-57
2022/08/17 00:16:42;;;;;;;10.63;9.55;;;;;;;;;;5035882;28;20236;-57
2022/08/17 00:19:09;;;;;;;10.52;9.40;;;;;;;;;;5041528;28;20674;-56
2022/08/17 00:21:37;;;;;;;10.30;9.13;;;;;;;;;;5038473;28;20615;-56
2022/08/17 00:24:03;;;;;;;10.57;9.57;;;;;;;;;;5039473;28;20235;-56
2022/08/17 00:26:29;;;;;;;9.60;8.80;;;;;;;;;;5035715;28;20662;-56
2022/08/17 00:28:57;;;;;;;10.05;9.13;;;;;;;;;;5044089;28;20608;-56
2022/08/17 00:31:24;;;;;;;10.07;9.18;;;;;;;;;;5041118;28;20605;-56
2022/08/17 00:33:51;;;;;;;10.77;9.27;;;;;;;;;;5041910;28;20228;-56
2022/08/17 00:36:17;;;;;;;11.30;10.30;;;;;;;;;;5042577;28;20234;-57
2022/08/17 00:38:43;;;;;;;10.25;9.35;;;;;;;;;;5041277;28;20235;-56
2022/08/17 00:41:11;;;;;;;10.32;9.35;;;;;;;;;;5040761;28;20236;-56
2022/08/17 00:43:38;;;;;;;10.45;9.45;;;;;;;;;;5041150;28;20228;-57
2022/08/17 00:46:08;;;;;;;11.20;10.00;;;;;;;;;;5035362;28;20260;-57
2022/08/17 00:48:35;;;;;;;10.93;9.80;;;;;;;;;;5033054;28;20232;-56
2022/08/17 00:51:05;;;;;;;11.40;10.20;;;;;;;;;;5038526;28;20235;-56
2022/08/17 00:53:32;;;;;;;11.13;10.02;;;;;;;;;;5042717;28;20232;-56
2022/08/17 00:55:59;;;;;;;9.95;8.98;;;;;;;;;;5040145;28;20242;-56
2022/08/17 00:58:26;;;;;;;9.77;8.88;;;;;;;;;;5039396;28;20232;-56
2022/08/17 01:00:52;;;;;;;10.35;9.23;;;;;;;;;;5038581;28;20614;-56
2022/08/17 01:03:24;;;;;;;13.13;10.20;;;;;;;;;;5040758;28;20231;-57
2022/08/17 01:05:51;;;;;;;10.55;9.55;;;;;;;;;;5034912;28;20323;-56
2022/08/17 01:08:18;;;;;;;9.95;9.05;;;;;;;;;;5039939;28;20234;-56
2022/08/17 01:10:47;;;;;;;9.48;8.63;;;;;;;;;;5042243;28;20238;-57
2022/08/17 01:13:13;;;;;;;9.82;8.85;;;;;;;;;;5033981;28;20607;-57
2022/08/17 01:15:42;;;;;;;10.00;9.02;;;;;;;;;;5042769;28;20266;-56
2022/08/17 01:18:10;;;;;;;12.48;9.60;;;;;;;;;;5039440;28;20235;-56
2022/08/17 01:20:38;;;;;;;13.98;10.35;;;;;;;;;;5039591;28;20231;-56
2022/08/17 01:23:06;;;;;;;9.38;8.57;;;;;;;;;;5041076;28;20622;-56
2022/08/17 01:25:32;;;;;;;10.63;9.50;;;;;;;;;;5043880;28;20254;-56
2022/08/17 01:27:59;;;;;;;9.75;8.75;;;;;;;;;;5039794;28;20314;-57
2022/08/17 01:30:25;;;;;;;9.13;8.23;;;;;;;;;;5038399;28;20232;-56
2022/08/17 01:32:52;;;;;;;10.90;9.75;;;;;;;;;;5040052;28;20268;-56
2022/08/17 01:35:18;;;;;;;11.15;9.98;;;;;;;;;;5045625;28;20259;-57
2022/08/17 01:37:45;;;;;;;11.35;9.75;;;;;;;;;;5045964;28;20228;-56
2022/08/17 01:40:15;;;;;;;11.57;10.38;;;;;;;;;;5045837;28;20231;-57
2022/08/17 01:42:44;;;;;;;10.52;9.52;;;;;;;;;;5044678;28;20246;-56
2022/08/17 01:45:12;;;;;;;9.98;9.05;;;;;;;;;;5047499;28;20243;-55
2022/08/17 01:47:40;;;;;;;12.75;10.02;;;;;;;;;;5045148;28;20235;-58
2022/08/17 01:50:08;;;;;;;10.45;8.68;;;;;;;;;;5045322;28;20259;-56
2022/08/17 01:52:35;;;;;;;11.32;9.80;;;;;;;;;;5044397;28;20246;-56
2022/08/17 01:55:02;;;;;;;10.98;9.90;;;;;;;;;;5047193;28;20278;-56
2022/08/17 01:57:30;;;;;;;10.52;9.52;;;;;;;;;;5047044;28;20323;-57
2022/08/17 01:59:56;;;;;;;10.73;9.75;;;;;;;;;;5043504;28;20571;-55
2022/08/17 02:02:23;;;;;;;15.05;10.38;;;;;;;;;;5043598;28;20239;-56
2022/08/17 02:04:49;;;;;;;11.40;10.30;;;;;;;;;;5047110;28;20339;-57
2022/08/17 02:07:16;;;;;;;11.50;10.40;;;;;;;;;;5042397;28;20231;-55
2022/08/17 02:09:43;;;;;;;10.88;9.88;;;;;;;;;;5047410;28;20244;-55
2022/08/17 02:12:10;;;;;;;10.45;9.55;;;;;;;;;;5047531;28;20240;-56
2022/08/17 02:14:37;;;;;;;10.68;9.43;;;;;;;;;;5045865;28;20297;-57
2022/08/17 02:17:04;;;;;;;10.35;9.35;;;;;;;;;;5044141;28;20232;-57
2022/08/17 02:19:31;;;;;;;11.43;9.77;;;;;;;;;;5041414;28;20275;-57
2022/08/17 02:21:57;;;;;;;10.02;9.13;;;;;;;;;;5045105;28;20239;-57
2022/08/17 02:24:25;;;;;;;10.55;9.55;;;;;;;;;;5045644;28;20231;-57
2022/08/17 02:26:52;;;;;;;10.25;9.35;;;;;;;;;;5044760;28;20243;-56
2022/08/17 02:29:18;;;;;;;11.23;10.05;;;;;;;;;;5045949;28;20236;-56
2022/08/17 02:31:46;;;;;;;11.32;10.15;;;;;;;;;;5043007;28;20725;-56
2022/08/17 02:34:13;;;;;;;11.10;9.73;;;;;;;;;;5043026;28;20236;-56
2022/08/17 02:36:40;;;;;;;10.70;9.70;;;;;;;;;;5038099;28;20231;-56
2022/08/17 02:39:08;;;;;;;10.05;9.20;;;;;;;;;;5045458;28;20242;-56
2022/08/17 02:41:35;;;;;;;10.63;9.65;;;;;;;;;;5044017;28;20758;-55
2022/08/17 02:44:02;;;;;;;10.95;9.23;;;;;;;;;;5046569;28;20246;-56
2022/08/17 02:46:29;;;;;;;9.70;8.77;;;;;;;;;;5047969;28;20256;-55
2022/08/17 02:48:56;;;;;;;10.38;9.48;;;;;;;;;;5043241;28;20227;-56
2022/08/17 02:51:23;;;;;;;10.43;9.43;;;;;;;;;;5044237;28;20721;-56
2022/08/17 02:53:49;;;;;;;11.05;9.95;;;;;;;;;;5043932;28;20227;-56
2022/08/17 02:56:16;;;;;;;13.73;9.00;;;;;;;;;;5039122;28;20236;-58
2022/08/17 02:58:42;;;;;;;10.02;9.15;;;;;;;;;;5044986;28;20231;-56
2022/08/17 03:01:09;;;;;;;10.40;9.40;;;;;;;;;;5047327;28;20338;-57
2022/08/17 03:03:36;;;;;;;11.07;9.98;;;;;;;;;;5049598;28;20232;-57
2022/08/17 03:06:04;;;;;;;10.20;9.10;;;;;;;;;;5044904;28;20772;-56
2022/08/17 03:08:31;;;;;;;10.68;9.57;;;;;;;;;;5045953;28;20244;-56
2022/08/17 03:10:57;;;;;;;10.88;9.88;;;;;;;;;;5046236;28;20243;-56
2022/08/17 03:13:24;;;;;;;10.77;8.95;;;;;;;;;;5047433;28;20717;-56
2022/08/17 03:15:50;;;;;;;10.80;9.65;;;;;;;;;;5043757;28;20231;-56
2022/08/17 03:18:18;;;;;;;11.50;10.35;;;;;;;;;;5043765;28;20235;-55
2022/08/17 03:20:44;;;;;;;10.35;9.35;;;;;;;;;;5044106;28;20228;-56
2022/08/17 03:23:12;;;;;;;10.85;9.73;;;;;;;;;;5042345;28;20228;-57
2022/08/17 03:25:41;;;;;;;11.63;10.25;;;;;;;;;;5039326;28;20241;-56
2022/08/17 03:28:08;;;;;;;13.65;11.38;;;;;;;;;;5040047;28;20328;-56
2022/08/17 03:30:34;;;;;;;11.73;10.38;;;;;;;;;;5042209;28;20256;-55
2022/08/17 03:33:01;;;;;;;11.98;10.05;;;;;;;;;;5039334;28;21791;-56
2022/08/17 03:35:29;;;;;;;12.40;10.38;;;;;;;;;;5040258;28;20327;-56
2022/08/17 03:37:55;;;;;;;12.57;11.18;;;;;;;;;;5046585;28;20228;-56
2022/08/17 03:40:23;;;;;;;11.32;10.20;;;;;;;;;;5042951;28;20262;-56
2022/08/17 03:42:52;;;;;;;12.85;11.38;;;;;;;;;;5046635;28;20242;-56
2022/08/17 03:56:40;;;;;;;10.73;9.68;;;;;;;;;;5044847;28;20240;-57
2022/08/17 03:56:42;;;;;;;11.55;10.45;;;;;;;;;;5040610;28;20751;-57
2022/08/17 03:59:09;;;;;;;15.13;11.10;;;;;;;;;;5040843;28;20230;-57
2022/08/17 04:01:36;;;;;;;11.93;10.60;;;;;;;;;;5040791;28;20681;-58
2022/08/17 04:04:02;;;;;;;11.05;10.05;;;;;;;;;;5043856;28;20231;-55
2022/08/17 04:06:28;;;;;;;11.15;9.93;;;;;;;;;;5039177;28;20252;-56
2022/08/17 04:08:55;;;;;;;11.57;10.43;;;;;;;;;;5043376;28;20232;-56
2022/08/17 04:11:21;;;;;;;15.60;10.85;;;;;;;;;;5041837;28;20238;-56
2022/08/17 04:13:49;;;;;;;11.43;10.27;;;;;;;;;;5043255;28;20228;-56
2022/08/17 04:16:15;;;;;;;13.10;11.50;;;;;;;;;;5039245;28;20223;-57
2022/08/17 04:18:41;;;;;;;13.50;10.68;;;;;;;;;;5041292;28;20235;-57
2022/08/17 04:21:08;;;;;;;11.80;10.43;;;;;;;;;;5043336;28;20239;-56
2022/08/17 04:23:35;;;;;;;12.13;10.80;;;;;;;;;;5042608;28;20236;-56
2022/08/17 04:26:02;;;;;;;15.13;10.90;;;;;;;;;;5040010;28;20354;-57
2022/08/17 04:28:29;;;;;;;11.93;10.75;;;;;;;;;;5040902;28;20236;-57
2022/08/17 04:30:57;;;;;;;11.90;10.68;;;;;;;;;;5038578;28;20318;-56
2022/08/17 04:33:24;;;;;;;16.17;11.57;;;;;;;;;;5040099;28;20285;-56
2022/08/17 04:35:54;;;;;;;13.27;11.82;;;;;;;;;;5041289;28;20227;-56
2022/08/17 04:38:23;;;;;;;13.02;11.68;;;;;;;;;;5042056;28;20232;-57
2022/08/17 04:43:35;;;;;;;12.95;11.68;;;;;;;;;;5036090;28;20249;-56
2022/08/17 04:46:04;;;;;;;19.67;13.30;;;;;;;;;;5030787;28;20237;-56
2022/08/17 04:48:32;;;;;;;14.77;11.82;;;;;;;;;;5037992;28;20275;-57
2022/08/17 04:50:59;;;;;;;13.27;11.45;;;;;;;;;;5038836;28;20262;-55
2022/08/17 04:53:25;;;;;;;15.15;12.55;;;;;;;;;;5042894;28;20243;-56
2022/08/17 04:55:52;;;;;;;15.70;13.50;;;;;;;;;;5042046;28;20228;-57
2022/08/17 04:58:19;;;;;;;16.05;14.10;;;;;;;;;;5038221;28;20240;-57
2022/08/17 05:00:46;;;;;;;14.85;13.23;;;;;;;;;;5036762;28;20231;-57
2022/08/17 05:03:13;;;;;;;17.35;13.25;;;;;;;;;;5037451;28;20319;-57
2022/08/17 05:05:42;;;;;;;14.32;12.77;;;;;;;;;;5039215;28;20237;-57
2022/08/17 05:08:08;;;;;;;15.18;12.05;;;;;;;;;;5039531;28;20310;-57
2022/08/17 05:10:38;;;;;;;14.27;12.25;;;;;;;;;;5038145;28;20233;-56
2022/08/17 05:13:05;;;;;;;16.70;13.73;;;;;;;;;;5042269;28;20359;-58
2022/08/17 05:15:33;;;;;;;25.15;14.00;;;;;;;;;;5037977;28;20707;-56
2022/08/17 05:17:59;;;;;;;15.98;14.25;;;;;;;;;;5040767;28;20232;-56
2022/08/17 05:20:27;;;;;;;15.85;14.27;;;;;;;;;;5039935;28;20235;-56
2022/08/17 05:22:55;;;;;;;15.73;12.80;;;;;;;;;;5037290;28;20231;-56
2022/08/17 05:25:21;;;;;;;14.93;12.98;;;;;;;;;;5042542;28;20240;-56
2022/08/17 05:27:48;;;;;;;14.70;13.32;;;;;;;;;;5041813;28;20236;-56
2022/08/17 05:30:16;;;;;;;14.25;12.77;;;;;;;;;;5037914;28;20231;-56
2022/08/17 05:32:50;;;;;;;16.17;12.25;;;;;;;;;;5039756;28;20236;-57
2022/08/17 05:35:16;;;;;;;14.25;12.90;;;;;;;;;;5032377;28;20228;-58
2022/08/17 05:37:44;;;;;;;14.20;12.80;;;;;;;;;;5041895;28;20235;-56
2022/08/17 05:40:11;;;;;;;13.27;12.02;;;;;;;;;;5042493;28;20228;-57
2022/08/17 05:42:37;;;;;;;14.68;13.20;;;;;;;;;;5041825;28;20488;-57
2022/08/17 05:45:04;;;;;;;15.85;14.00;;;;;;;;;;5029816;28;20320;-59
2022/08/17 05:47:30;;;;;;;16.95;15.27;;;;;;;;;;5034018;28;20239;-56
2022/08/17 05:49:57;;;;;;;14.93;13.48;;;;;;;;;;5041303;28;20235;-56
2022/08/17 05:52:26;;;;;;;15.35;13.60;;;;;;;;;;5042144;28;20239;-57
2022/08/17 05:54:59;;;;;;;15.30;13.70;;;;;;;;;;5041930;28;20239;-56
2022/08/17 05:57:42;;;;;;;16.83;15.35;;;;;;;;;;5034202;28;20227;-57
2022/08/17 06:00:12;;;;;;;16.38;14.35;;;;;;;;;;5038192;28;20327;-62
2022/08/17 06:02:41;;;;;;;15.80;14.30;;;;;;;;;;5034737;28;20240;-56
2022/08/17 06:05:14;;;;;;;15.98;14.23;;;;;;;;;;5039959;28;20230;-55
2022/08/17 06:07:44;;;;;;;15.00;13.70;;;;;;;;;;5033571;28;20578;-56
2022/08/17 06:10:14;;;;;;;17.20;14.35;;;;;;;;;;5037270;28;20246;-56
2022/08/17 06:12:47;;;;;;;16.27;14.70;;;;;;;;;;5036423;28;20228;-56
2022/08/17 06:15:23;;;;;;;20.83;15.68;;;;;;;;;;5042916;28;20232;-56
2022/08/17 06:17:51;;;;;;;15.98;14.38;;;;;;;;;;5042355;28;20342;-56
2022/08/17 06:20:17;;;;;;;17.30;13.82;;;;;;;;;;5040567;28;20252;-57
2022/08/17 06:22:45;;;;;;;18.98;15.35;;;;;;;;;;5048840;28;20232;-59
2022/08/17 06:25:15;;;;;;;14.85;13.35;;;;;;;;;;5042135;28;20610;-59
2022/08/17 06:27:43;;;;;;;16.42;13.77;;;;;;;;;;5042763;28;20237;-56
2022/08/17 06:30:12;;;;;;;14.82;13.35;;;;;;;;;;5043802;28;20307;-57
2022/08/17 06:32:40;;;;;;;14.50;13.20;;;;;;;;;;5045341;28;20232;-58
2022/08/17 06:35:07;;;;;;;15.77;13.48;;;;;;;;;;5043607;28;20335;-56
2022/08/17 06:37:40;;;;;;;15.25;13.68;;;;;;;;;;5043327;28;20259;-56
2022/08/17 06:40:19;;;;;;;14.82;13.32;;;;;;;;;;5036682;28;20225;-56
2022/08/17 06:42:51;;;;;;;15.63;14.05;;;;;;;;;;5042960;28;20224;-57
2022/08/17 06:45:19;;;;;;;14.10;12.52;;;;;;;;;;5041446;28;20235;-57
2022/08/17 06:47:48;;;;;;;13.85;12.50;;;;;;;;;;5044416;28;20239;-58
2022/08/17 06:50:17;;;;;;;14.15;12.65;;;;;;;;;;5045386;28;20231;-55
2022/08/17 06:52:48;;;;;;;12.13;10.93;;;;;;;;;;5040889;28;20277;-57
2022/08/17 06:55:19;;;;;;;11.75;10.65;;;;;;;;;;5044214;28;20281;-57
2022/08/17 06:57:46;;;;;;;18.05;11.40;;;;;;;;;;5035783;28;20236;-58
2022/08/17 07:00:15;;;;;;;12.43;11.23;;;;;;;;;;5045843;28;20247;-55
2022/08/17 07:02:45;;;;;;;12.93;11.73;;;;;;;;;;5040748;28;20246;-57
2022/08/17 07:05:12;;;;;;;11.13;10.13;;;;;;;;;;5044364;28;20239;-57
2022/08/17 07:10:27;;;;;;;13.95;10.00;;;;;;;;;;5039060;28;20666;-57
2022/08/17 07:12:55;;;;;;;11.23;10.00;;;;;;;;;;5040508;28;20239;-57
2022/08/17 07:15:24;;;;;;;11.77;10.55;;;;;;;;;;5042645;28;20282;-57
2022/08/17 07:17:51;;;;;;;9.38;8.48;;;;;;;;;;5040114;28;20329;-56
2022/08/17 07:20:19;;;;;;;11.50;10.35;;;;;;;;;;5039187;28;20224;-57
2022/08/17 07:22:49;;;;;;;9.38;8.48;;;;;;;;;;5045498;28;20239;-57
2022/08/17 07:25:17;;;;;;;9.10;8.20;;;;;;;;;;5045009;28;20239;-57
2022/08/17 07:27:49;;;;;;;9.15;8.25;;;;;;;;;;5033178;28;20240;-57
2022/08/17 07:30:18;;;;;;;8.93;8.02;;;;;;;;;;5041062;28;20244;-56
2022/08/17 07:32:45;;;;;;;9.02;8.07;;;;;;;;;;5039961;28;20241;-57
2022/08/17 07:35:14;;;;;;;9.65;8.20;;;;;;;;;;5042199;28;20732;-56
2022/08/17 07:37:41;;;;;;;9.38;7.90;;;;;;;;;;5039298;28;20318;-57
2022/08/17 07:40:16;;;;;;;12.05;9.10;;;;;;;;;;5039627;28;20262;-56
2022/08/17 07:42:42;;;;;;;10.55;9.27;;;;;;;;;;5039072;28;20236;-57
2022/08/17 07:48:17;;;;;;;8.65;7.57;;;;;;;;;;5045414;28;20223;-61
2022/08/17 07:50:41;;;;;;;9.77;8.73;;;;;;;;;;5037665;28;20607;-57
2022/08/17 07:53:15;;;;;;;7.63;6.97;;;;;;;;;;5035749;28;20722;-56
2022/08/17 07:55:41;;;;;;;7.10;6.40;;;;;;;;;;5039426;28;20318;-58
2022/08/17 07:58:15;;;;;;;10.18;6.90;;;;;;;;;;5039324;28;20232;-56
2022/08/17 08:00:43;;;;;;;7.65;6.88;;;;;;;;;;5031935;28;20315;-55
2022/08/17 08:03:15;;;;;;;7.57;6.88;;;;;;;;;;5028761;28;20232;-57
2022/08/17 08:05:49;;;;;;;7.95;6.38;;;;;;;;;;5035816;28;20616;-56
2022/08/17 08:08:21;;;;;;;11.27;7.05;;;;;;;;;;5031499;28;20334;-57
2022/08/17 08:10:57;;;;;;;7.50;6.75;;;;;;;;;;5043335;28;20239;-58
2022/08/17 08:13:24;;;;;;;8.35;7.60;;;;;;;;;;5038787;28;20224;-57
2022/08/17 08:15:53;;;;;;;7.93;6.35;;;;;;;;;;5038129;28;20223;-56
2022/08/17 08:18:21;;;;;;;7.75;6.95;;;;;;;;;;5031147;28;20236;-57
2022/08/17 08:20:49;;;;;;;10.60;5.75;;;;;;;;;;5039210;28;20232;-55
2022/08/17 08:23:19;;;;;;;8.25;6.80;;;;;;;;;;5045940;28;20690;-56
2022/08/17 08:25:48;;;;;;;6.40;5.80;;;;;;;;;;5036165;28;20239;-58
2022/08/17 08:28:19;;;;;;;9.93;6.40;;;;;;;;;;5041483;28;20255;-56
2022/08/17 08:30:47;;;;;;;5.90;5.07;;;;;;;;;;5041249;28;20232;-57
2022/08/17 08:33:38;;;;;;;7.28;6.35;;;;;;;;;;5042598;28;20732;-58
2022/08/17 08:36:13;;;;;;;10.57;6.88;;;;;;;;;;5025119;28;20247;-57
2022/08/17 08:38:43;;;;;;;6.20;5.70;;;;;;;;;;5040775;28;20235;-58
2022/08/17 08:41:20;;;;;;;6.45;5.85;;;;;;;;;;5044052;28;20790;-56
2022/08/17 08:43:52;;;;;;;8.15;5.90;;;;;;;;;;5035590;28;20220;-57
2022/08/17 08:46:24;;;;;;;5.18;4.72;;;;;;;;;;5040692;28;20244;-56
2022/08/17 08:49:00;;;;;;;7.68;6.22;;;;;;;;;;5038410;28;20251;-57
2022/08/17 08:51:33;;;;;;;5.40;4.90;;;;;;;;;;5033199;28;20347;-57
2022/08/17 08:54:04;;;;;;;6.80;5.68;;;;;;;;;;5039193;28;20236;-56
2022/08/17 08:56:34;;;;;;;6.38;5.72;;;;;;;;;;5038208;28;20234;-57
2022/08/17 08:59:02;;;;;;;5.40;4.90;;;;;;;;;;5044379;28;20258;-57
2022/08/17 09:01:37;;;;;;;5.95;5.45;;;;;;;;;;5036338;28;20231;-56
2022/08/17 09:04:13;;;;;;;5.60;5.10;;;;;;;;;;5032375;28;20239;-57
2022/08/17 09:06:48;;;;;;;5.40;4.82;;;;;;;;;;5034596;28;20227;-55
2022/08/17 09:09:18;;;;;;;7.10;5.82;;;;;;;;;;5033682;28;20236;-56
2022/08/17 09:11:51;;;;;;;8.25;5.72;;;;;;;;;;5038799;28;20231;-57
2022/08/17 09:14:19;;;;;;;7.07;6.10;;;;;;;;;;5037590;28;20225;-55
2022/08/17 09:16:49;;;;;;;6.78;5.55;;;;;;;;;;5036408;28;20235;-56
2022/08/17 09:19:18;;;;;;;7.80;5.90;;;;;;;;;;5039649;28;20268;-56
2022/08/17 09:21:51;;;;;;;8.45;5.28;;;;;;;;;;5039098;28;20297;-57
2022/08/17 09:24:20;;;;;;;5.78;5.28;;;;;;;;;;5041750;28;20262;-57
2022/08/17 09:26:49;;;;;;;7.03;5.57;;;;;;;;;;5040222;28;20319;-55
2022/08/17 09:29:16;;;;;;;6.97;5.05;;;;;;;;;;5042607;28;20240;-55
2022/08/17 09:31:46;;;;;;;6.32;5.82;;;;;;;;;;5040479;28;20604;-55
2022/08/17 09:34:15;;;;;;;5.13;4.72;;;;;;;;;;5041087;28;20673;-57
2022/08/17 09:36:44;;;;;;;5.78;5.18;;;;;;;;;;5034367;28;20301;-56
2022/08/17 09:39:15;;;;;;;5.60;5.15;;;;;;;;;;5042745;28;20310;-56
2022/08/17 09:41:44;;;;;;;5.85;5.18;;;;;;;;;;5038835;28;20232;-56
2022/08/17 09:44:16;;;;;;;7.47;4.63;;;;;;;;;;5039503;28;20707;-56
2022/08/17 09:46:47;;;;;;;4.88;4.47;;;;;;;;;;5039483;28;20239;-57
2022/08/17 09:49:26;;;;;;;4.95;4.53;;;;;;;;;;5028457;28;20228;-56
2022/08/17 09:51:55;;;;;;;6.05;4.63;;;;;;;;;;5031395;28;20251;-56
2022/08/17 09:54:26;;;;;;;7.72;6.03;;;;;;;;;;5033460;28;20228;-57
2022/08/17 09:56:59;;;;;;;5.65;5.10;;;;;;;;;;5034475;28;20235;-56
2022/08/17 09:59:36;;;;;;;7.45;4.90;;;;;;;;;;5041131;28;20289;-56
2022/08/17 10:02:13;;;;;;;5.22;4.68;;;;;;;;;;5038902;28;20231;-56
2022/08/17 10:04:43;;;;;;;5.07;4.55;;;;;;;;;;5037200;28;20224;-55
2022/08/17 10:07:14;;;;;;;6.53;5.05;;;;;;;;;;5035457;28;20710;-55
2022/08/17 10:09:46;;;;;;;5.88;5.13;;;;;;;;;;5041801;28;20275;-55
2022/08/17 10:12:18;;;;;;;5.18;4.30;;;;;;;;;;5045932;28;20251;-56
2022/08/17 10:14:53;;;;;;;4.70;4.30;;;;;;;;;;5038708;28;20242;-56
2022/08/17 10:17:22;;;;;;;4.85;4.40;;;;;;;;;;5041207;28;20231;-56
2022/08/17 10:19:53;;;;;;;8.02;4.93;;;;;;;;;;5047120;28;20248;-54
2022/08/17 10:27:55;;;;;;;6.72;4.55;;;;;;;;;;5037370;28;20238;-56
2022/08/17 10:30:23;;;;;;;6.50;5.05;;;;;;;;;;5039373;28;20330;-56
2022/08/17 10:32:53;;;;;;;4.78;4.38;;;;;;;;;;5039417;28;20246;-57
2022/08/17 10:35:26;;;;;;;6.80;4.85;;;;;;;;;;5044137;28;20232;-55
2022/08/17 10:38:05;;;;;;;5.20;4.15;;;;;;;;;;5039348;28;20231;-58
2022/08/17 10:40:35;;;;;;;4.60;4.20;;;;;;;;;;5034811;28;20322;-55
2022/08/17 10:43:09;;;;;;;4.78;4.38;;;;;;;;;;5045657;28;20391;-54
2022/08/17 10:45:44;;;;;;;5.78;4.82;;;;;;;;;;5030373;28;20766;-55
2022/08/17 10:48:28;;;;;;;4.45;4.05;;;;;;;;;;5041200;28;20242;-55
2022/08/17 10:50:59;;;;;;;4.55;4.15;;;;;;;;;;5039325;28;20228;-55
2022/08/17 10:53:44;;;;;;;5.65;4.18;;;;;;;;;;5040334;28;20231;-55
2022/08/17 10:56:20;;;;;;;5.95;4.57;;;;;;;;;;5039838;28;20228;-55
2022/08/17 10:58:49;;;;;;;4.30;3.95;;;;;;;;;;5039549;28;20231;-55
2022/08/17 11:01:16;;;;;;;4.82;3.72;;;;;;;;;;5036926;28;20243;-56
2022/08/17 11:03:53;;;;;;;4.47;4.07;;;;;;;;;;5044556;28;20402;-55
2022/08/17 11:06:23;;;;;;;3.45;3.15;;;;;;;;;;5037257;28;20223;-54
2022/08/17 11:09:11;;;;;;;4.05;3.75;;;;;;;;;;5037983;28;20722;-56
2022/08/17 11:11:50;;;;;;;4.93;4.32;;;;;;;;;;5050041;28;20238;-55
2022/08/17 11:14:22;;;;;;;4.00;3.08;;;;;;;;;;5046268;28;20270;-56
2022/08/17 11:16:56;;;;;;;3.20;2.90;;;;;;;;;;5039816;28;20736;-55
2022/08/17 11:19:46;;;;;;;4.15;3.85;;;;;;;;;;5037513;28;20243;-56
2022/08/17 11:22:37;;;;;;;3.75;3.45;;;;;;;;;;5020097;28;20232;-54
2022/08/17 11:25:13;;;;;;;3.85;3.55;;;;;;;;;;5037612;28;20315;-55
2022/08/17 11:27:42;;;;;;;5.18;3.80;;;;;;;;;;5033501;28;20246;-54
2022/08/17 11:30:12;;;;;;;4.85;3.30;;;;;;;;;;5036748;28;20228;-56
2022/08/17 11:32:40;;;;;;;3.97;3.65;;;;;;;;;;5045159;28;20320;-56
2022/08/17 11:35:10;;;;;;;4.18;3.78;;;;;;;;;;5043326;28;20233;-56
2022/08/17 11:37:43;;;;;;;3.90;3.50;;;;;;;;;;5037516;28;20307;-55
2022/08/17 11:40:14;;;;;;;3.72;3.42;;;;;;;;;;5033324;28;20228;-56
2022/08/17 11:43:02;;;;;;;3.83;3.47;;;;;;;;;;5035005;28;20227;-56
2022/08/17 11:45:36;;;;;;;4.22;3.88;;;;;;;;;;5012292;28;20225;-55
2022/08/17 11:54:08;;;;;;;3.75;3.20;;;;;;;;;;5041088;28;20238;-55
2022/08/17 11:56:43;;;;;;;4.07;3.20;;;;;;;;;;5032253;28;20256;-56
2022/08/17 11:59:24;;;;;;;3.40;2.85;;;;;;;;;;5036888;28;20239;-55
2022/08/17 12:01:54;;;;;;;3.50;3.20;;;;;;;;;;5029585;28;20235;-54
2022/08/17 12:04:24;;;;;;;3.13;2.92;;;;;;;;;;5038009;28;20232;-55
2022/08/17 12:06:53;;;;;;;2.97;2.78;;;;;;;;;;5033539;28;20235;-54
2022/08/17 12:09:23;;;;;;;2.88;2.67;;;;;;;;;;5032456;28;20304;-56
2022/08/17 12:11:51;;;;;;;3.20;2.88;;;;;;;;;;5041765;28;20618;-57
2022/08/17 12:14:21;;;;;;;7.15;2.95;;;;;;;;;;5036284;28;20736;-54
2022/08/17 12:16:58;;;;;;;3.22;2.92;;;;;;;;;;5038511;28;20238;-55
2022/08/17 12:19:28;;;;;;;3.20;3.00;;;;;;;;;;5036600;28;20233;-54
2022/08/17 12:21:57;;;;;;;4.47;3.05;;;;;;;;;;5040650;28;20326;-56
2022/08/17 12:24:31;;;;;;;4.90;3.08;;;;;;;;;;5043530;28;20251;-55
2022/08/17 12:26:58;;;;;;;2.95;2.75;;;;;;;;;;5044161;28;20257;-55
2022/08/17 12:29:24;;;;;;;3.08;2.78;;;;;;;;;;5040265;28;20335;-55
2022/08/17 12:31:53;;;;;;;3.97;3.60;;;;;;;;;;5042734;28;20610;-55
2022/08/17 12:34:22;;;;;;;3.88;3.58;;;;;;;;;;5036252;28;20234;-56
2022/08/17 12:36:50;;;;;;;4.18;3.15;;;;;;;;;;5040498;28;20728;-56
2022/08/17 12:39:18;;;;;;;3.60;2.75;;;;;;;;;;5036394;28;20724;-55
2022/08/17 12:41:46;;;;;;;3.92;3.45;;;;;;;;;;5035065;28;20292;-56
2022/08/17 12:44:14;;;;;;;3.35;2.83;;;;;;;;;;5039751;28;20235;-55
2022/08/17 12:46:58;;;;;;;6.32;3.20;;;;;;;;;;5035907;28;20705;-54
2022/08/17 12:49:28;;;;;;;3.85;3.10;;;;;;;;;;5037774;28;20234;-55
2022/08/17 12:52:00;;;;;;;3.47;3.17;;;;;;;;;;5040087;28;20281;-55
2022/08/17 12:54:30;;;;;;;3.60;3.10;;;;;;;;;;5042427;28;20243;-54
2022/08/17 12:57:05;;;;;;;3.63;3.33;;;;;;;;;;5037502;28;20296;-55
2022/08/17 12:59:32;;;;;;;3.60;2.72;;;;;;;;;;5038014;28;20231;-54
2022/08/17 13:01:59;;;;;;;3.78;3.47;;;;;;;;;;5040159;28;20769;-56
2022/08/17 13:04:28;;;;;;;2.95;2.75;;;;;;;;;;5018779;28;20232;-56
2022/08/17 13:06:54;;;;;;;3.22;2.92;;;;;;;;;;5031943;28;20232;-56
2022/08/17 13:09:23;;;;;;;3.58;2.95;;;;;;;;;;5034393;28;20239;-56
2022/08/17 13:11:50;;;;;;;3.65;3.38;;;;;;;;;;5036882;28;20247;-56
2022/08/17 13:14:17;;;;;;;4.47;3.80;;;;;;;;;;5027185;28;20236;-55
2022/08/17 13:16:48;;;;;;;3.78;3.20;;;;;;;;;;5030469;28;20595;-56
2022/08/17 13:19:19;;;;;;;4.35;3.50;;;;;;;;;;5034098;28;20239;-56
2022/08/17 13:21:48;;;;;;;5.03;3.83;;;;;;;;;;5032948;28;20232;-56
2022/08/17 13:24:17;;;;;;;4.75;3.75;;;;;;;;;;5025588;28;20721;-56
2022/08/17 13:26:45;;;;;;;3.28;2.83;;;;;;;;;;5042219;28;20228;-55
2022/08/17 13:29:22;;;;;;;3.72;3.42;;;;;;;;;;5047392;28;20626;-55
2022/08/17 13:31:49;;;;;;;4.25;3.70;;;;;;;;;;5040807;28;20247;-55
2022/08/17 13:34:16;;;;;;;6.18;3.80;;;;;;;;;;5042759;28;20231;-56
2022/08/17 13:36:43;;;;;;;3.53;3.22;;;;;;;;;;5041276;28;20235;-55
2022/08/17 13:39:14;;;;;;;3.53;3.22;;;;;;;;;;5042037;28;20620;-56
2022/08/17 13:41:41;;;;;;;3.47;3.10;;;;;;;;;;5039262;28;20259;-54
2022/08/17 13:44:27;;;;;;;4.47;3.45;;;;;;;;;;5041499;28;20242;-55
2022/08/17 13:46:53;;;;;;;3.70;3.40;;;;;;;;;;5037186;28;20227;-56
2022/08/17 13:49:20;;;;;;;3.30;3.00;;;;;;;;;;5039903;28;20245;-56
2022/08/17 13:51:48;;;;;;;3.55;3.35;;;;;;;;;;5036759;28;20259;-56
2022/08/17 13:54:23;;;;;;;3.78;2.72;;;;;;;;;;5037848;28;20791;-55
2022/08/17 13:56:53;;;;;;;3.50;2.88;;;;;;;;;;5039678;28;21108;-55
2022/08/17 13:59:25;;;;;;;3.35;3.05;;;;;;;;;;5038779;28;20228;-56
2022/08/17 14:01:52;;;;;;;3.42;3.22;;;;;;;;;;5038742;28;20232;-54
2022/08/17 14:04:23;;;;;;;3.60;3.40;;;;;;;;;;5041210;28;20243;-53
2022/08/17 14:06:50;;;;;;;3.50;3.30;;;;;;;;;;5029704;28;20239;-53
2022/08/17 14:09:18;;;;;;;3.22;3.00;;;;;;;;;;5039247;28;20228;-54
2022/08/17 14:11:46;;;;;;;3.00;2.70;;;;;;;;;;5036360;28;20659;-53
2022/08/17 14:14:13;;;;;;;4.07;3.78;;;;;;;;;;5044906;28;20236;-53
2022/08/17 14:16:40;;;;;;;3.53;3.30;;;;;;;;;;5037762;28;20227;-55
2022/08/17 14:19:08;;;;;;;4.82;3.25;;;;;;;;;;5039870;28;20242;-55
2022/08/17 14:21:35;;;;;;;4.10;3.30;;;;;;;;;;5038167;28;20241;-54
2022/08/17 14:24:01;;;;;;;3.47;3.17;;;;;;;;;;5035818;28;20294;-54
2022/08/17 14:26:28;;;;;;;5.85;5.13;;;;;;;;;;5030391;28;20233;-55
2022/08/17 14:28:55;;;;;;;4.70;3.88;;;;;;;;;;5030487;28;22426;-54
2022/08/17 14:31:22;;;;;;;4.50;4.10;;;;;;;;;;5038169;28;20553;-53
2022/08/17 14:33:48;;;;;;;5.53;5.03;;;;;;;;;;5037594;28;20239;-54
2022/08/17 14:36:14;;;;;;;6.38;5.47;;;;;;;;;;5047825;28;20741;-53
2022/08/17 14:38:40;;;;;;;5.55;5.03;;;;;;;;;;5039707;28;20234;-53
2022/08/17 14:41:07;;;;;;;4.53;4.22;;;;;;;;;;5038226;28;20242;-55
2022/08/17 14:43:34;;;;;;;5.82;5.30;;;;;;;;;;5035153;28;20717;-55
2022/08/17 14:46:02;;;;;;;4.75;4.30;;;;;;;;;;5040552;28;20632;-54
2022/08/17 14:48:29;;;;;;;4.13;3.83;;;;;;;;;;5036848;28;20231;-54
2022/08/17 14:50:56;;;;;;;3.70;3.50;;;;;;;;;;5041227;28;20294;-55
2022/08/17 14:53:22;;;;;;;4.03;3.67;;;;;;;;;;5033647;28;20285;-56
2022/08/17 14:55:49;;;;;;;4.50;3.97;;;;;;;;;;5039591;28;20232;-54
2022/08/17 14:58:16;;;;;;;4.07;3.78;;;;;;;;;;5039186;28;20235;-53
2022/08/17 15:00:43;;;;;;;4.00;3.60;;;;;;;;;;5032597;28;20236;-53
2022/08/17 15:03:11;;;;;;;4.15;3.85;;;;;;;;;;5044709;28;20227;-54
2022/08/17 15:05:38;;;;;;;3.60;3.38;;;;;;;;;;5036102;28;20240;-55
2022/08/17 15:08:05;;;;;;;3.78;3.47;;;;;;;;;;5034352;28;20243;-54
2022/08/17 15:10:32;;;;;;;4.13;3.72;;;;;;;;;;5039035;28;20266;-55
2022/08/17 15:12:59;;;;;;;3.80;3.47;;;;;;;;;;5037546;28;20243;-55
2022/08/17 15:15:25;;;;;;;5.93;3.63;;;;;;;;;;5031832;28;20601;-55